sensor_id;sensor_type;location;lat;lon;timestamp;P1;durP1;ratioP1;P2;durP2;ratioP2
7128;SDS011;3606;52.930;8.644;2024-01-25T00:02:15;27.30;;;5.50;;
7128;SDS011;3606;52.930;8.644;2024-01-25T00:04:41;26.33;;;5.23;;
7128;SDS011;3606;52.930;8.644;2024-01-25T00:07:09;23.63;;;5.63;;
7128;SDS011;3606;52.930;8.644;2024-01-25T00:09:35;30.53;;;5.13;;
7128;SDS011;3606;52.930;8.644;2024-01-25T00:12:01;24.43;;;4.77;;
7128;SDS011;3606;52.930;8.644;2024-01-25T00:14:27;22.77;;;5.37;;
7128;SDS011;3606;52.930;8.644;2024-01-25T00:16:52;19.57;;;5.23;;
7128;SDS011;3606;52.930;8.644;2024-01-25T00:19:18;13.67;;;4.77;;
7128;SDS011;3606;52.930;8.644;2024-01-25T00:21:43;19.87;;;4.67;;
7128;SDS011;3606;52.930;8.644;2024-01-25T00:24:12;26.07;;;5.27;;
7128;SDS011;3606;52.930;8.644;2024-01-25T00:26:38;21.37;;;5.30;;
7128;SDS011;3606;52.930;8.644;2024-01-25T00:29:04;14.23;;;4.97;;
7128;SDS011;3606;52.930;8.644;2024-01-25T00:31:30;16.93;;;4.70;;
7128;SDS011;3606;52.930;8.644;2024-01-25T00:33:56;26.67;;;5.53;;
7128;SDS011;3606;52.930;8.644;2024-01-25T00:36:22;18.10;;;5.13;;
7128;SDS011;3606;52.930;8.644;2024-01-25T00:38:48;17.40;;;4.60;;
7128;SDS011;3606;52.930;8.644;2024-01-25T00:41:18;22.50;;;5.57;;
7128;SDS011;3606;52.930;8.644;2024-01-25T00:43:44;20.63;;;4.77;;
7128;SDS011;3606;52.930;8.644;2024-01-25T00:46:10;16.47;;;4.67;;
7128;SDS011;3606;52.930;8.644;2024-01-25T00:48:37;16.20;;;4.93;;
7128;SDS011;3606;52.930;8.644;2024-01-25T00:51:03;26.23;;;5.17;;
7128;SDS011;3606;52.930;8.644;2024-01-25T00:53:39;21.07;;;5.30;;
7128;SDS011;3606;52.930;8.644;2024-01-25T00:56:05;20.93;;;4.43;;
7128;SDS011;3606;52.930;8.644;2024-01-25T00:58:31;21.43;;;5.23;;
7128;SDS011;3606;52.930;8.644;2024-01-25T01:00:57;23.23;;;4.77;;
7128;SDS011;3606;52.930;8.644;2024-01-25T01:03:23;20.13;;;4.53;;
7128;SDS011;3606;52.930;8.644;2024-01-25T01:05:48;20.33;;;4.87;;
7128;SDS011;3606;52.930;8.644;2024-01-25T01:08:14;21.47;;;4.67;;
7128;SDS011;3606;52.930;8.644;2024-01-25T01:10:40;21.23;;;4.60;;
7128;SDS011;3606;52.930;8.644;2024-01-25T01:13:06;16.20;;;4.33;;
7128;SDS011;3606;52.930;8.644;2024-01-25T01:15:31;18.63;;;4.67;;
7128;SDS011;3606;52.930;8.644;2024-01-25T01:17:57;20.77;;;5.00;;
7128;SDS011;3606;52.930;8.644;2024-01-25T01:20:23;20.43;;;4.93;;
7128;SDS011;3606;52.930;8.644;2024-01-25T01:22:48;27.97;;;5.37;;
7128;SDS011;3606;52.930;8.644;2024-01-25T01:25:15;24.87;;;5.13;;
7128;SDS011;3606;52.930;8.644;2024-01-25T01:27:41;19.77;;;5.03;;
7128;SDS011;3606;52.930;8.644;2024-01-25T01:30:07;18.20;;;4.83;;
7128;SDS011;3606;52.930;8.644;2024-01-25T01:32:33;21.20;;;5.03;;
7128;SDS011;3606;52.930;8.644;2024-01-25T01:34:59;19.63;;;5.13;;
7128;SDS011;3606;52.930;8.644;2024-01-25T01:37:24;15.30;;;4.63;;
7128;SDS011;3606;52.930;8.644;2024-01-25T01:39:50;17.93;;;4.50;;
7128;SDS011;3606;52.930;8.644;2024-01-25T01:42:17;25.60;;;5.40;;
7128;SDS011;3606;52.930;8.644;2024-01-25T01:44:43;29.00;;;5.53;;
7128;SDS011;3606;52.930;8.644;2024-01-25T01:47:08;19.37;;;4.63;;
7128;SDS011;3606;52.930;8.644;2024-01-25T01:49:34;24.10;;;5.00;;
7128;SDS011;3606;52.930;8.644;2024-01-25T01:52:01;26.03;;;5.07;;
7128;SDS011;3606;52.930;8.644;2024-01-25T01:54:27;20.70;;;5.20;;
7128;SDS011;3606;52.930;8.644;2024-01-25T01:56:53;23.60;;;4.63;;
7128;SDS011;3606;52.930;8.644;2024-01-25T01:59:19;21.13;;;5.53;;
7128;SDS011;3606;52.930;8.644;2024-01-25T02:01:45;20.73;;;4.77;;
7128;SDS011;3606;52.930;8.644;2024-01-25T02:04:11;19.83;;;4.67;;
7128;SDS011;3606;52.930;8.644;2024-01-25T02:06:37;20.47;;;5.10;;
7128;SDS011;3606;52.930;8.644;2024-01-25T02:09:02;27.30;;;5.23;;
7128;SDS011;3606;52.930;8.644;2024-01-25T02:11:30;23.87;;;5.20;;
7128;SDS011;3606;52.930;8.644;2024-01-25T02:13:55;24.53;;;5.43;;
7128;SDS011;3606;52.930;8.644;2024-01-25T02:16:21;24.60;;;5.23;;
7128;SDS011;3606;52.930;8.644;2024-01-25T02:18:47;23.00;;;5.27;;
7128;SDS011;3606;52.930;8.644;2024-01-25T02:21:13;18.23;;;4.87;;
7128;SDS011;3606;52.930;8.644;2024-01-25T02:23:38;19.57;;;5.00;;
7128;SDS011;3606;52.930;8.644;2024-01-25T02:26:04;17.73;;;4.83;;
7128;SDS011;3606;52.930;8.644;2024-01-25T02:28:30;27.10;;;5.27;;
7128;SDS011;3606;52.930;8.644;2024-01-25T02:30:55;17.00;;;4.60;;
7128;SDS011;3606;52.930;8.644;2024-01-25T02:33:21;25.47;;;5.27;;
7128;SDS011;3606;52.930;8.644;2024-01-25T02:35:47;20.60;;;5.10;;
7128;SDS011;3606;52.930;8.644;2024-01-25T02:38:12;17.60;;;4.70;;
7128;SDS011;3606;52.930;8.644;2024-01-25T02:40:38;23.30;;;5.67;;
7128;SDS011;3606;52.930;8.644;2024-01-25T02:43:04;21.93;;;5.40;;
7128;SDS011;3606;52.930;8.644;2024-01-25T02:45:30;18.00;;;4.63;;
7128;SDS011;3606;52.930;8.644;2024-01-25T02:47:56;21.13;;;4.97;;
7128;SDS011;3606;52.930;8.644;2024-01-25T02:50:21;18.93;;;5.13;;
7128;SDS011;3606;52.930;8.644;2024-01-25T02:52:47;24.90;;;5.90;;
7128;SDS011;3606;52.930;8.644;2024-01-25T02:55:12;23.47;;;4.73;;
7128;SDS011;3606;52.930;8.644;2024-01-25T02:57:38;27.30;;;5.63;;
7128;SDS011;3606;52.930;8.644;2024-01-25T03:00:04;21.63;;;5.37;;
7128;SDS011;3606;52.930;8.644;2024-01-25T03:02:30;22.37;;;5.47;;
7128;SDS011;3606;52.930;8.644;2024-01-25T03:04:56;29.87;;;5.33;;
7128;SDS011;3606;52.930;8.644;2024-01-25T03:07:22;22.27;;;5.40;;
7128;SDS011;3606;52.930;8.644;2024-01-25T03:09:47;21.03;;;5.33;;
7128;SDS011;3606;52.930;8.644;2024-01-25T03:12:13;22.77;;;5.43;;
7128;SDS011;3606;52.930;8.644;2024-01-25T03:14:39;26.50;;;5.07;;
7128;SDS011;3606;52.930;8.644;2024-01-25T03:17:04;26.13;;;5.27;;
7128;SDS011;3606;52.930;8.644;2024-01-25T03:19:30;21.43;;;5.17;;
7128;SDS011;3606;52.930;8.644;2024-01-25T03:21:56;25.93;;;5.50;;
7128;SDS011;3606;52.930;8.644;2024-01-25T03:24:21;28.20;;;5.57;;
7128;SDS011;3606;52.930;8.644;2024-01-25T03:26:50;25.70;;;5.67;;
7128;SDS011;3606;52.930;8.644;2024-01-25T03:29:16;24.97;;;5.17;;
7128;SDS011;3606;52.930;8.644;2024-01-25T03:31:44;23.50;;;5.33;;
7128;SDS011;3606;52.930;8.644;2024-01-25T03:34:10;28.73;;;5.87;;
7128;SDS011;3606;52.930;8.644;2024-01-25T03:36:37;20.83;;;5.17;;
7128;SDS011;3606;52.930;8.644;2024-01-25T03:39:06;17.83;;;5.07;;
7128;SDS011;3606;52.930;8.644;2024-01-25T03:41:35;23.43;;;4.83;;
7128;SDS011;3606;52.930;8.644;2024-01-25T03:44:00;25.33;;;5.40;;
7128;SDS011;3606;52.930;8.644;2024-01-25T03:46:26;27.80;;;5.40;;
7128;SDS011;3606;52.930;8.644;2024-01-25T03:48:52;24.43;;;5.57;;
7128;SDS011;3606;52.930;8.644;2024-01-25T03:51:19;23.90;;;4.67;;
7128;SDS011;3606;52.930;8.644;2024-01-25T03:53:45;20.73;;;4.57;;
7128;SDS011;3606;52.930;8.644;2024-01-25T03:56:13;22.17;;;5.27;;
7128;SDS011;3606;52.930;8.644;2024-01-25T03:58:42;28.77;;;5.27;;
7128;SDS011;3606;52.930;8.644;2024-01-25T04:01:08;28.10;;;5.10;;
7128;SDS011;3606;52.930;8.644;2024-01-25T04:03:34;20.20;;;5.60;;
7128;SDS011;3606;52.930;8.644;2024-01-25T04:05:59;26.37;;;5.30;;
7128;SDS011;3606;52.930;8.644;2024-01-25T04:08:25;28.30;;;5.43;;
7128;SDS011;3606;52.930;8.644;2024-01-25T04:10:51;20.97;;;5.20;;
7128;SDS011;3606;52.930;8.644;2024-01-25T04:13:16;25.87;;;5.60;;
7128;SDS011;3606;52.930;8.644;2024-01-25T04:15:42;18.50;;;4.80;;
7128;SDS011;3606;52.930;8.644;2024-01-25T04:18:07;24.10;;;5.17;;
7128;SDS011;3606;52.930;8.644;2024-01-25T04:20:33;27.00;;;5.43;;
7128;SDS011;3606;52.930;8.644;2024-01-25T04:22:59;29.47;;;5.07;;
7128;SDS011;3606;52.930;8.644;2024-01-25T04:25:25;24.67;;;5.63;;
7128;SDS011;3606;52.930;8.644;2024-01-25T04:27:51;16.07;;;4.60;;
7128;SDS011;3606;52.930;8.644;2024-01-25T04:30:16;25.83;;;5.50;;
7128;SDS011;3606;52.930;8.644;2024-01-25T04:32:43;30.07;;;5.80;;
7128;SDS011;3606;52.930;8.644;2024-01-25T04:35:09;29.03;;;5.73;;
7128;SDS011;3606;52.930;8.644;2024-01-25T04:37:35;21.17;;;5.07;;
7128;SDS011;3606;52.930;8.644;2024-01-25T04:40:01;27.60;;;6.23;;
7128;SDS011;3606;52.930;8.644;2024-01-25T04:42:27;20.13;;;5.50;;
7128;SDS011;3606;52.930;8.644;2024-01-25T04:44:53;34.83;;;5.80;;
7128;SDS011;3606;52.930;8.644;2024-01-25T04:47:18;24.00;;;4.87;;
7128;SDS011;3606;52.930;8.644;2024-01-25T04:49:44;27.87;;;5.83;;
7128;SDS011;3606;52.930;8.644;2024-01-25T04:52:09;28.83;;;6.03;;
7128;SDS011;3606;52.930;8.644;2024-01-25T04:54:35;20.27;;;4.57;;
7128;SDS011;3606;52.930;8.644;2024-01-25T04:57:01;29.20;;;5.80;;
7128;SDS011;3606;52.930;8.644;2024-01-25T04:59:31;20.63;;;5.30;;
7128;SDS011;3606;52.930;8.644;2024-01-25T05:01:59;20.40;;;4.47;;
7128;SDS011;3606;52.930;8.644;2024-01-25T05:04:25;26.47;;;5.40;;
7128;SDS011;3606;52.930;8.644;2024-01-25T05:06:53;25.73;;;5.63;;
7128;SDS011;3606;52.930;8.644;2024-01-25T05:09:18;23.23;;;5.40;;
7128;SDS011;3606;52.930;8.644;2024-01-25T05:11:44;29.43;;;5.60;;
7128;SDS011;3606;52.930;8.644;2024-01-25T05:14:09;24.00;;;4.60;;
7128;SDS011;3606;52.930;8.644;2024-01-25T05:16:35;30.90;;;5.77;;
7128;SDS011;3606;52.930;8.644;2024-01-25T05:19:01;24.80;;;5.83;;
7128;SDS011;3606;52.930;8.644;2024-01-25T05:21:26;22.50;;;5.00;;
7128;SDS011;3606;52.930;8.644;2024-01-25T05:23:52;21.63;;;5.33;;
7128;SDS011;3606;52.930;8.644;2024-01-25T05:26:17;19.57;;;4.83;;
7128;SDS011;3606;52.930;8.644;2024-01-25T05:28:44;21.53;;;5.27;;
7128;SDS011;3606;52.930;8.644;2024-01-25T05:31:09;20.93;;;5.17;;
7128;SDS011;3606;52.930;8.644;2024-01-25T05:33:40;26.50;;;5.50;;
7128;SDS011;3606;52.930;8.644;2024-01-25T05:36:06;19.77;;;4.73;;
7128;SDS011;3606;52.930;8.644;2024-01-25T05:38:32;31.70;;;5.40;;
7128;SDS011;3606;52.930;8.644;2024-01-25T05:40:58;23.03;;;6.00;;
7128;SDS011;3606;52.930;8.644;2024-01-25T05:43:24;20.50;;;5.83;;
7128;SDS011;3606;52.930;8.644;2024-01-25T05:45:50;22.50;;;5.57;;
7128;SDS011;3606;52.930;8.644;2024-01-25T05:48:16;22.47;;;5.73;;
7128;SDS011;3606;52.930;8.644;2024-01-25T05:50:41;27.60;;;5.37;;
7128;SDS011;3606;52.930;8.644;2024-01-25T05:53:07;21.57;;;4.80;;
7128;SDS011;3606;52.930;8.644;2024-01-25T05:55:32;15.03;;;5.13;;
7128;SDS011;3606;52.930;8.644;2024-01-25T05:57:58;19.03;;;5.50;;
7128;SDS011;3606;52.930;8.644;2024-01-25T06:00:24;26.90;;;5.23;;
7128;SDS011;3606;52.930;8.644;2024-01-25T06:02:49;19.30;;;4.80;;
7128;SDS011;3606;52.930;8.644;2024-01-25T06:05:15;22.73;;;5.63;;
7128;SDS011;3606;52.930;8.644;2024-01-25T06:07:40;17.20;;;4.73;;
7128;SDS011;3606;52.930;8.644;2024-01-25T06:10:06;25.10;;;5.43;;
7128;SDS011;3606;52.930;8.644;2024-01-25T06:12:33;25.70;;;4.87;;
7128;SDS011;3606;52.930;8.644;2024-01-25T06:14:59;30.43;;;5.73;;
7128;SDS011;3606;52.930;8.644;2024-01-25T06:17:25;19.90;;;5.13;;
7128;SDS011;3606;52.930;8.644;2024-01-25T06:19:50;24.10;;;5.43;;
7128;SDS011;3606;52.930;8.644;2024-01-25T06:22:16;27.13;;;6.23;;
7128;SDS011;3606;52.930;8.644;2024-01-25T06:24:42;29.90;;;5.33;;
7128;SDS011;3606;52.930;8.644;2024-01-25T06:27:11;29.90;;;5.70;;
7128;SDS011;3606;52.930;8.644;2024-01-25T06:29:36;28.03;;;5.90;;
7128;SDS011;3606;52.930;8.644;2024-01-25T06:32:02;34.07;;;5.73;;
7128;SDS011;3606;52.930;8.644;2024-01-25T06:34:28;32.63;;;6.37;;
7128;SDS011;3606;52.930;8.644;2024-01-25T06:36:53;25.33;;;6.00;;
7128;SDS011;3606;52.930;8.644;2024-01-25T06:39:19;26.43;;;6.07;;
7128;SDS011;3606;52.930;8.644;2024-01-25T06:41:44;35.60;;;6.60;;
7128;SDS011;3606;52.930;8.644;2024-01-25T06:44:10;26.20;;;6.20;;
7128;SDS011;3606;52.930;8.644;2024-01-25T06:46:36;27.37;;;6.13;;
7128;SDS011;3606;52.930;8.644;2024-01-25T06:49:01;28.63;;;5.20;;
7128;SDS011;3606;52.930;8.644;2024-01-25T06:51:28;20.90;;;5.70;;
7128;SDS011;3606;52.930;8.644;2024-01-25T06:53:53;28.47;;;5.60;;
7128;SDS011;3606;52.930;8.644;2024-01-25T06:56:19;26.23;;;6.33;;
7128;SDS011;3606;52.930;8.644;2024-01-25T06:58:44;32.53;;;5.90;;
7128;SDS011;3606;52.930;8.644;2024-01-25T07:01:10;30.53;;;5.87;;
7128;SDS011;3606;52.930;8.644;2024-01-25T07:03:36;34.20;;;6.60;;
7128;SDS011;3606;52.930;8.644;2024-01-25T07:06:01;30.60;;;6.03;;
7128;SDS011;3606;52.930;8.644;2024-01-25T07:08:27;22.50;;;5.60;;
7128;SDS011;3606;52.930;8.644;2024-01-25T07:10:52;34.43;;;5.77;;
7128;SDS011;3606;52.930;8.644;2024-01-25T07:13:18;27.27;;;6.40;;
7128;SDS011;3606;52.930;8.644;2024-01-25T07:15:43;26.60;;;5.70;;
7128;SDS011;3606;52.930;8.644;2024-01-25T07:18:10;28.77;;;5.80;;
7128;SDS011;3606;52.930;8.644;2024-01-25T07:20:36;29.70;;;6.40;;
7128;SDS011;3606;52.930;8.644;2024-01-25T07:23:01;24.00;;;6.17;;
7128;SDS011;3606;52.930;8.644;2024-01-25T07:25:27;33.80;;;6.30;;
7128;SDS011;3606;52.930;8.644;2024-01-25T07:27:52;37.60;;;6.27;;
7128;SDS011;3606;52.930;8.644;2024-01-25T07:30:18;25.90;;;5.50;;
7128;SDS011;3606;52.930;8.644;2024-01-25T07:32:44;29.27;;;6.63;;
7128;SDS011;3606;52.930;8.644;2024-01-25T07:35:11;29.27;;;6.30;;
7128;SDS011;3606;52.930;8.644;2024-01-25T07:37:38;26.17;;;5.33;;
7128;SDS011;3606;52.930;8.644;2024-01-25T07:40:05;25.10;;;6.33;;
7128;SDS011;3606;52.930;8.644;2024-01-25T07:42:31;30.77;;;6.93;;
7128;SDS011;3606;52.930;8.644;2024-01-25T07:44:57;30.67;;;5.37;;
7128;SDS011;3606;52.930;8.644;2024-01-25T07:47:23;27.17;;;5.93;;
7128;SDS011;3606;52.930;8.644;2024-01-25T07:49:48;30.60;;;5.87;;
7128;SDS011;3606;52.930;8.644;2024-01-25T07:52:14;23.20;;;5.90;;
7128;SDS011;3606;52.930;8.644;2024-01-25T07:54:40;30.97;;;5.47;;
7128;SDS011;3606;52.930;8.644;2024-01-25T07:57:05;28.37;;;5.87;;
7128;SDS011;3606;52.930;8.644;2024-01-25T07:59:31;24.30;;;5.73;;
7128;SDS011;3606;52.930;8.644;2024-01-25T08:01:56;21.67;;;5.60;;
7128;SDS011;3606;52.930;8.644;2024-01-25T08:04:22;35.10;;;6.47;;
7128;SDS011;3606;52.930;8.644;2024-01-25T08:06:48;33.00;;;6.27;;
7128;SDS011;3606;52.930;8.644;2024-01-25T08:09:13;35.73;;;6.07;;
7128;SDS011;3606;52.930;8.644;2024-01-25T08:11:39;24.27;;;5.33;;
7128;SDS011;3606;52.930;8.644;2024-01-25T08:14:05;28.50;;;5.67;;
7128;SDS011;3606;52.930;8.644;2024-01-25T08:16:31;30.90;;;5.70;;
7128;SDS011;3606;52.930;8.644;2024-01-25T08:18:56;27.50;;;5.63;;
7128;SDS011;3606;52.930;8.644;2024-01-25T08:21:23;27.70;;;6.73;;
7128;SDS011;3606;52.930;8.644;2024-01-25T08:23:49;28.53;;;6.27;;
7128;SDS011;3606;52.930;8.644;2024-01-25T08:26:14;28.53;;;6.20;;
7128;SDS011;3606;52.930;8.644;2024-01-25T08:28:40;19.27;;;6.10;;
7128;SDS011;3606;52.930;8.644;2024-01-25T08:31:09;29.00;;;5.57;;
7128;SDS011;3606;52.930;8.644;2024-01-25T08:33:35;37.03;;;6.43;;
7128;SDS011;3606;52.930;8.644;2024-01-25T08:36:01;25.47;;;5.90;;
7128;SDS011;3606;52.930;8.644;2024-01-25T08:38:27;26.93;;;5.73;;
7128;SDS011;3606;52.930;8.644;2024-01-25T08:40:52;18.57;;;5.50;;
7128;SDS011;3606;52.930;8.644;2024-01-25T08:43:18;34.90;;;6.93;;
7128;SDS011;3606;52.930;8.644;2024-01-25T08:45:44;23.53;;;5.50;;
7128;SDS011;3606;52.930;8.644;2024-01-25T08:48:09;34.93;;;7.10;;
7128;SDS011;3606;52.930;8.644;2024-01-25T08:50:35;21.57;;;5.80;;
7128;SDS011;3606;52.930;8.644;2024-01-25T08:53:01;31.60;;;6.00;;
7128;SDS011;3606;52.930;8.644;2024-01-25T08:55:27;24.23;;;5.47;;
7128;SDS011;3606;52.930;8.644;2024-01-25T08:57:53;28.20;;;6.80;;
7128;SDS011;3606;52.930;8.644;2024-01-25T09:00:19;36.67;;;6.10;;
7128;SDS011;3606;52.930;8.644;2024-01-25T09:02:44;27.97;;;6.40;;
7128;SDS011;3606;52.930;8.644;2024-01-25T09:05:10;26.30;;;6.20;;
7128;SDS011;3606;52.930;8.644;2024-01-25T09:07:36;19.50;;;5.30;;
7128;SDS011;3606;52.930;8.644;2024-01-25T09:10:03;27.23;;;6.17;;
7128;SDS011;3606;52.930;8.644;2024-01-25T09:12:32;37.17;;;7.00;;
7128;SDS011;3606;52.930;8.644;2024-01-25T09:14:59;23.10;;;5.80;;
7128;SDS011;3606;52.930;8.644;2024-01-25T09:17:25;27.37;;;6.10;;
7128;SDS011;3606;52.930;8.644;2024-01-25T09:19:51;27.43;;;6.47;;
7128;SDS011;3606;52.930;8.644;2024-01-25T09:22:17;30.43;;;6.77;;
7128;SDS011;3606;52.930;8.644;2024-01-25T09:24:44;23.40;;;5.83;;
7128;SDS011;3606;52.930;8.644;2024-01-25T09:27:11;32.03;;;6.10;;
7128;SDS011;3606;52.930;8.644;2024-01-25T09:29:37;19.30;;;5.97;;
7128;SDS011;3606;52.930;8.644;2024-01-25T09:32:04;32.87;;;6.90;;
7128;SDS011;3606;52.930;8.644;2024-01-25T09:34:31;27.87;;;6.87;;
7128;SDS011;3606;52.930;8.644;2024-01-25T09:36:57;26.40;;;6.57;;
7128;SDS011;3606;52.930;8.644;2024-01-25T09:39:22;28.03;;;7.10;;
7128;SDS011;3606;52.930;8.644;2024-01-25T09:41:48;26.47;;;6.90;;
7128;SDS011;3606;52.930;8.644;2024-01-25T09:44:14;20.37;;;6.90;;
7128;SDS011;3606;52.930;8.644;2024-01-25T09:46:40;20.67;;;6.33;;
7128;SDS011;3606;52.930;8.644;2024-01-25T09:49:07;26.60;;;7.03;;
7128;SDS011;3606;52.930;8.644;2024-01-25T09:51:36;24.10;;;7.17;;
7128;SDS011;3606;52.930;8.644;2024-01-25T09:54:06;28.53;;;6.53;;
7128;SDS011;3606;52.930;8.644;2024-01-25T09:56:32;23.97;;;6.83;;
7128;SDS011;3606;52.930;8.644;2024-01-25T09:58:58;32.53;;;6.43;;
7128;SDS011;3606;52.930;8.644;2024-01-25T10:01:26;33.43;;;7.27;;
7128;SDS011;3606;52.930;8.644;2024-01-25T10:03:52;27.80;;;8.23;;
7128;SDS011;3606;52.930;8.644;2024-01-25T10:06:21;33.13;;;8.50;;
7128;SDS011;3606;52.930;8.644;2024-01-25T10:08:46;30.70;;;8.50;;
7128;SDS011;3606;52.930;8.644;2024-01-25T10:11:12;25.57;;;7.37;;
7128;SDS011;3606;52.930;8.644;2024-01-25T10:13:41;29.33;;;7.53;;
7128;SDS011;3606;52.930;8.644;2024-01-25T10:16:11;23.27;;;7.50;;
7128;SDS011;3606;52.930;8.644;2024-01-25T10:18:37;24.90;;;8.43;;
7128;SDS011;3606;52.930;8.644;2024-01-25T10:21:04;30.17;;;6.87;;
7128;SDS011;3606;52.930;8.644;2024-01-25T10:23:30;19.43;;;6.67;;
7128;SDS011;3606;52.930;8.644;2024-01-25T10:25:56;23.60;;;7.07;;
7128;SDS011;3606;52.930;8.644;2024-01-25T10:28:23;26.27;;;8.03;;
7128;SDS011;3606;52.930;8.644;2024-01-25T10:30:50;27.40;;;8.63;;
7128;SDS011;3606;52.930;8.644;2024-01-25T10:33:16;25.77;;;8.43;;
7128;SDS011;3606;52.930;8.644;2024-01-25T10:35:42;33.70;;;9.93;;
7128;SDS011;3606;52.930;8.644;2024-01-25T10:38:14;36.13;;;10.03;;
7128;SDS011;3606;52.930;8.644;2024-01-25T10:40:43;25.77;;;9.10;;
7128;SDS011;3606;52.930;8.644;2024-01-25T10:43:11;22.87;;;9.40;;
7128;SDS011;3606;52.930;8.644;2024-01-25T10:45:37;29.60;;;9.47;;
7128;SDS011;3606;52.930;8.644;2024-01-25T10:48:03;33.70;;;9.57;;
7128;SDS011;3606;52.930;8.644;2024-01-25T10:50:30;26.60;;;8.93;;
7128;SDS011;3606;52.930;8.644;2024-01-25T10:52:55;25.43;;;9.53;;
7128;SDS011;3606;52.930;8.644;2024-01-25T10:55:22;21.57;;;8.57;;
7128;SDS011;3606;52.930;8.644;2024-01-25T10:57:48;28.83;;;9.37;;
7128;SDS011;3606;52.930;8.644;2024-01-25T11:00:14;30.70;;;10.77;;
7128;SDS011;3606;52.930;8.644;2024-01-25T11:02:41;32.33;;;10.53;;
7128;SDS011;3606;52.930;8.644;2024-01-25T11:05:12;26.53;;;9.80;;
7128;SDS011;3606;52.930;8.644;2024-01-25T11:07:49;23.53;;;8.57;;
7128;SDS011;3606;52.930;8.644;2024-01-25T11:10:17;29.87;;;10.30;;
7128;SDS011;3606;52.930;8.644;2024-01-25T11:12:50;27.97;;;9.07;;
7128;SDS011;3606;52.930;8.644;2024-01-25T11:15:22;24.73;;;10.07;;
7128;SDS011;3606;52.930;8.644;2024-01-25T11:17:55;28.50;;;8.83;;
7128;SDS011;3606;52.930;8.644;2024-01-25T11:20:24;28.27;;;10.10;;
7128;SDS011;3606;52.930;8.644;2024-01-25T11:22:58;25.97;;;9.57;;
7128;SDS011;3606;52.930;8.644;2024-01-25T11:25:28;29.27;;;9.13;;
7128;SDS011;3606;52.930;8.644;2024-01-25T11:27:55;33.63;;;9.00;;
7128;SDS011;3606;52.930;8.644;2024-01-25T11:30:21;29.07;;;8.57;;
7128;SDS011;3606;52.930;8.644;2024-01-25T11:32:47;28.13;;;8.73;;
7128;SDS011;3606;52.930;8.644;2024-01-25T11:35:13;33.60;;;10.80;;
7128;SDS011;3606;52.930;8.644;2024-01-25T11:37:48;18.83;;;7.97;;
7128;SDS011;3606;52.930;8.644;2024-01-25T11:40:16;25.33;;;8.53;;
7128;SDS011;3606;52.930;8.644;2024-01-25T11:42:42;20.40;;;8.60;;
7128;SDS011;3606;52.930;8.644;2024-01-25T11:45:12;37.23;;;9.40;;
7128;SDS011;3606;52.930;8.644;2024-01-25T11:47:39;27.77;;;9.03;;
7128;SDS011;3606;52.930;8.644;2024-01-25T11:50:06;26.40;;;8.83;;
7128;SDS011;3606;52.930;8.644;2024-01-25T11:52:33;29.93;;;9.73;;
7128;SDS011;3606;52.930;8.644;2024-01-25T11:55:05;26.40;;;9.87;;
7128;SDS011;3606;52.930;8.644;2024-01-25T11:57:32;31.03;;;10.63;;
7128;SDS011;3606;52.930;8.644;2024-01-25T11:59:59;25.90;;;9.47;;
7128;SDS011;3606;52.930;8.644;2024-01-25T12:02:26;31.13;;;9.57;;
7128;SDS011;3606;52.930;8.644;2024-01-25T12:04:52;33.10;;;10.27;;
7128;SDS011;3606;52.930;8.644;2024-01-25T12:07:20;28.13;;;9.50;;
7128;SDS011;3606;52.930;8.644;2024-01-25T12:09:56;25.60;;;10.67;;
7128;SDS011;3606;52.930;8.644;2024-01-25T12:12:24;27.27;;;11.07;;
7128;SDS011;3606;52.930;8.644;2024-01-25T12:14:50;27.43;;;9.20;;
7128;SDS011;3606;52.930;8.644;2024-01-25T12:17:17;26.97;;;9.90;;
7128;SDS011;3606;52.930;8.644;2024-01-25T12:19:43;27.77;;;8.87;;
7128;SDS011;3606;52.930;8.644;2024-01-25T12:22:08;20.87;;;9.50;;
7128;SDS011;3606;52.930;8.644;2024-01-25T12:24:35;29.83;;;9.10;;
7128;SDS011;3606;52.930;8.644;2024-01-25T12:27:00;31.53;;;10.10;;
7128;SDS011;3606;52.930;8.644;2024-01-25T12:29:26;19.40;;;9.53;;
7128;SDS011;3606;52.930;8.644;2024-01-25T12:31:51;23.07;;;8.73;;
7128;SDS011;3606;52.930;8.644;2024-01-25T12:34:17;26.90;;;9.13;;
7128;SDS011;3606;52.930;8.644;2024-01-25T12:36:42;23.43;;;8.43;;
7128;SDS011;3606;52.930;8.644;2024-01-25T12:39:08;32.07;;;8.53;;
7128;SDS011;3606;52.930;8.644;2024-01-25T12:41:35;25.10;;;8.17;;
7128;SDS011;3606;52.930;8.644;2024-01-25T12:44:00;27.57;;;8.10;;
7128;SDS011;3606;52.930;8.644;2024-01-25T12:46:26;21.77;;;8.13;;
7128;SDS011;3606;52.930;8.644;2024-01-25T12:48:52;29.37;;;8.97;;
7128;SDS011;3606;52.930;8.644;2024-01-25T12:51:20;21.60;;;8.20;;
7128;SDS011;3606;52.930;8.644;2024-01-25T12:53:46;27.50;;;7.63;;
7128;SDS011;3606;52.930;8.644;2024-01-25T12:56:13;23.70;;;6.13;;
7128;SDS011;3606;52.930;8.644;2024-01-25T12:58:39;21.57;;;6.13;;
7128;SDS011;3606;52.930;8.644;2024-01-25T13:01:05;16.30;;;5.00;;
7128;SDS011;3606;52.930;8.644;2024-01-25T13:03:30;23.43;;;6.00;;
7128;SDS011;3606;52.930;8.644;2024-01-25T13:05:56;17.97;;;4.97;;
7128;SDS011;3606;52.930;8.644;2024-01-25T13:08:21;22.27;;;5.70;;
7128;SDS011;3606;52.930;8.644;2024-01-25T13:10:47;17.27;;;5.33;;
7128;SDS011;3606;52.930;8.644;2024-01-25T13:13:13;16.73;;;4.83;;
7128;SDS011;3606;52.930;8.644;2024-01-25T13:15:38;18.67;;;5.30;;
7128;SDS011;3606;52.930;8.644;2024-01-25T13:18:04;20.43;;;5.50;;
7128;SDS011;3606;52.930;8.644;2024-01-25T13:20:30;21.17;;;5.60;;
7128;SDS011;3606;52.930;8.644;2024-01-25T13:22:55;27.77;;;5.87;;
7128;SDS011;3606;52.930;8.644;2024-01-25T13:25:21;16.23;;;5.33;;
7128;SDS011;3606;52.930;8.644;2024-01-25T13:27:46;22.20;;;4.83;;
7128;SDS011;3606;52.930;8.644;2024-01-25T13:30:12;20.20;;;5.93;;
7128;SDS011;3606;52.930;8.644;2024-01-25T13:32:39;15.70;;;4.37;;
7128;SDS011;3606;52.930;8.644;2024-01-25T13:35:05;20.77;;;5.03;;
7128;SDS011;3606;52.930;8.644;2024-01-25T13:37:31;17.23;;;5.40;;
7128;SDS011;3606;52.930;8.644;2024-01-25T13:39:57;20.03;;;5.80;;
7128;SDS011;3606;52.930;8.644;2024-01-25T13:42:22;28.87;;;5.83;;
7128;SDS011;3606;52.930;8.644;2024-01-25T13:44:48;18.87;;;4.47;;
7128;SDS011;3606;52.930;8.644;2024-01-25T13:47:13;16.00;;;4.63;;
7128;SDS011;3606;52.930;8.644;2024-01-25T13:49:39;22.27;;;5.57;;
7128;SDS011;3606;52.930;8.644;2024-01-25T13:52:05;21.30;;;5.40;;
7128;SDS011;3606;52.930;8.644;2024-01-25T13:54:30;18.53;;;5.33;;
7128;SDS011;3606;52.930;8.644;2024-01-25T13:56:56;22.10;;;5.27;;
7128;SDS011;3606;52.930;8.644;2024-01-25T13:59:22;24.37;;;5.10;;
7128;SDS011;3606;52.930;8.644;2024-01-25T14:01:49;21.03;;;4.93;;
7128;SDS011;3606;52.930;8.644;2024-01-25T14:04:16;17.80;;;5.70;;
7128;SDS011;3606;52.930;8.644;2024-01-25T14:06:41;20.07;;;4.83;;
7128;SDS011;3606;52.930;8.644;2024-01-25T14:09:07;17.97;;;4.90;;
7128;SDS011;3606;52.930;8.644;2024-01-25T14:11:32;24.70;;;5.77;;
7128;SDS011;3606;52.930;8.644;2024-01-25T14:13:58;16.17;;;4.93;;
7128;SDS011;3606;52.930;8.644;2024-01-25T14:16:23;19.63;;;5.37;;
7128;SDS011;3606;52.930;8.644;2024-01-25T14:18:49;25.33;;;5.80;;
7128;SDS011;3606;52.930;8.644;2024-01-25T14:21:15;15.83;;;4.67;;
7128;SDS011;3606;52.930;8.644;2024-01-25T14:23:40;13.67;;;5.13;;
7128;SDS011;3606;52.930;8.644;2024-01-25T14:26:06;17.80;;;5.40;;
7128;SDS011;3606;52.930;8.644;2024-01-25T14:28:31;17.50;;;5.20;;
7128;SDS011;3606;52.930;8.644;2024-01-25T14:30:57;14.83;;;4.80;;
7128;SDS011;3606;52.930;8.644;2024-01-25T14:33:24;19.23;;;5.40;;
7128;SDS011;3606;52.930;8.644;2024-01-25T14:35:49;17.63;;;5.00;;
7128;SDS011;3606;52.930;8.644;2024-01-25T14:38:15;16.03;;;4.27;;
7128;SDS011;3606;52.930;8.644;2024-01-25T14:40:40;19.63;;;5.03;;
7128;SDS011;3606;52.930;8.644;2024-01-25T14:43:06;22.47;;;4.73;;
7128;SDS011;3606;52.930;8.644;2024-01-25T14:45:32;25.43;;;5.90;;
7128;SDS011;3606;52.930;8.644;2024-01-25T14:47:59;17.53;;;5.33;;
7128;SDS011;3606;52.930;8.644;2024-01-25T14:50:24;16.00;;;5.00;;
7128;SDS011;3606;52.930;8.644;2024-01-25T14:52:50;22.47;;;5.40;;
7128;SDS011;3606;52.930;8.644;2024-01-25T14:55:16;20.87;;;5.93;;